Time;durP1;ratioP1;P1;durP2;ratioP2;P2;SDS_P1;SDS_P2;PMS_P1;PMS_P2;Temp;Humidity;BMP_temperature;BMP_pressure;BME280_temperature;BME280_humidity;BME280_pressure;Samples;Min_cycle;Max_cycle;Signal;HPM_P1;HPM_P2
2022/08/16 00:00:13;;;;;;;;;;;17.90;99.90;;;;;;4981698;28;19961;-81
2022/08/16 00:02:39;;;;;;;;;;;17.80;99.90;;;;;;4982905;28;19914;-81
2022/08/16 00:05:05;;;;;;;;;;;17.80;99.90;;;;;;4983262;28;19924;-80
2022/08/16 00:07:31;;;;;;;;;;;17.80;99.90;;;;;;4971298;28;20018;-80
2022/08/16 00:09:57;;;;;;;;;;;17.80;99.90;;;;;;4971190;28;20210;-80
2022/08/16 00:12:23;;;;;;;;;;;17.80;99.90;;;;;;4978498;28;20587;-80
2022/08/16 00:14:49;;;;;;;;;;;17.90;99.90;;;;;;4963898;28;19921;-80
2022/08/16 00:17:14;;;;;;;;;;;17.80;99.90;;;;;;4983628;28;19917;-80
2022/08/16 00:19:40;;;;;;;;;;;17.80;99.90;;;;;;4971866;28;19992;-80
2022/08/16 00:22:05;;;;;;;;;;;17.70;99.90;;;;;;4980183;28;20012;-79
2022/08/16 00:24:32;;;;;;;;;;;17.60;99.90;;;;;;4983027;28;19913;-80
2022/08/16 00:26:58;;;;;;;;;;;17.60;99.90;;;;;;4976591;28;19914;-79
2022/08/16 00:29:23;;;;;;;;;;;17.60;99.90;;;;;;4979004;28;19914;-80
2022/08/16 00:31:50;;;;;;;;;;;17.60;99.90;;;;;;4983256;28;20655;-80
2022/08/16 00:34:16;;;;;;;;;;;17.50;99.90;;;;;;4982942;28;19922;-77
2022/08/16 00:36:45;;;;;;;;;;;17.50;99.90;;;;;;4980451;28;20448;-77
2022/08/16 00:39:12;;;;;;;;;;;17.40;99.90;;;;;;4980843;28;19921;-79
2022/08/16 00:41:37;;;;;;;;;;;17.40;99.90;;;;;;4983354;28;19917;-81
2022/08/16 00:44:09;;;;;;;;;;;17.40;99.90;;;;;;4982332;28;19914;-80
2022/08/16 00:46:37;;;;;;;;;;;17.30;99.90;;;;;;4981496;28;19926;-78
2022/08/16 00:49:05;;;;;;;;;;;17.20;99.90;;;;;;4986413;28;20853;-77
2022/08/16 00:51:30;;;;;;;;;;;17.30;99.90;;;;;;4986525;28;19925;-77
2022/08/16 00:53:56;;;;;;;;;;;17.20;99.90;;;;;;4985585;28;19921;-77
2022/08/16 00:56:27;;;;;;;;;;;17.30;99.90;;;;;;4986529;28;19940;-78
2022/08/16 00:58:52;;;;;;;;;;;17.20;99.90;;;;;;4964649;28;19960;-79
2022/08/16 01:01:19;;;;;;;;;;;17.30;99.90;;;;;;4962350;28;20004;-80
2022/08/16 01:03:46;;;;;;;;;;;17.20;99.90;;;;;;4965379;28;20787;-79
2022/08/16 01:06:11;;;;;;;;;;;17.10;99.90;;;;;;4981798;28;19924;-79
2022/08/16 01:08:37;;;;;;;;;;;17.00;99.90;;;;;;4973880;28;19918;-79
2022/08/16 01:11:04;;;;;;;;;;;17.00;99.90;;;;;;4982360;28;19914;-80
2022/08/16 01:13:31;;;;;;;;;;;17.00;99.90;;;;;;4985520;28;20332;-80
2022/08/16 01:15:59;;;;;;;;;;;17.10;99.90;;;;;;4986368;28;19914;-80
2022/08/16 01:18:28;;;;;;;;;;;17.10;99.90;;;;;;4986191;28;19913;-80
2022/08/16 01:21:01;;;;;;;;;;;17.10;99.90;;;;;;4984237;28;20384;-81
2022/08/16 01:23:37;;;;;;;;;;;17.10;99.90;;;;;;4985907;28;19913;-82
2022/08/16 01:26:03;;;;;;;;;;;17.10;99.90;;;;;;4985790;28;19920;-81
2022/08/16 01:28:29;;;;;;;;;;;17.00;99.90;;;;;;4985215;28;19918;-80
2022/08/16 01:30:55;;;;;;;;;;;17.00;99.90;;;;;;4985765;28;19924;-80
2022/08/16 01:33:21;;;;;;;;;;;17.00;99.90;;;;;;4986041;28;20800;-80
2022/08/16 01:35:49;;;;;;;;;;;17.00;99.90;;;;;;4985835;28;20604;-79
2022/08/16 01:38:26;;;;;;;;;;;17.00;99.90;;;;;;4985612;28;20004;-79
2022/08/16 01:40:54;;;;;;;;;;;17.00;99.90;;;;;;4985369;28;20396;-79
2022/08/16 01:43:20;;;;;;;;;;;16.90;99.90;;;;;;4985442;28;19918;-79
2022/08/16 01:45:46;;;;;;;;;;;16.90;99.90;;;;;;4980686;28;19914;-78
2022/08/16 01:48:12;;;;;;;;;;;16.90;99.90;;;;;;4985415;28;19913;-80
2022/08/16 01:50:41;;;;;;;;;;;16.80;99.90;;;;;;4985252;28;19917;-76
2022/08/16 01:53:06;;;;;;;;;;;16.80;99.90;;;;;;4967591;28;20385;-76
2022/08/16 01:55:32;;;;;;;;;;;16.80;99.90;;;;;;4984426;28;19924;-76
2022/08/16 01:57:58;;;;;;;;;;;16.80;99.90;;;;;;4984710;28;19910;-76
2022/08/16 02:00:25;;;;;;;;;;;16.80;99.90;;;;;;4966952;28;19969;-75
2022/08/16 02:02:51;;;;;;;;;;;16.70;99.90;;;;;;4976357;28;19914;-75
2022/08/16 02:05:16;;;;;;;;;;;16.70;99.90;;;;;;4984853;28;19920;-75
2022/08/16 02:07:42;;;;;;;;;;;16.60;99.90;;;;;;4984834;28;19921;-75
2022/08/16 02:10:08;;;;;;;;;;;16.50;99.90;;;;;;4971944;28;19914;-76
2022/08/16 02:12:34;;;;;;;;;;;16.50;99.90;;;;;;4984634;28;19980;-75
2022/08/16 02:15:00;;;;;;;;;;;16.60;99.90;;;;;;4976294;28;19922;-76
2022/08/16 02:17:25;;;;;;;;;;;16.50;99.90;;;;;;4975637;28;19956;-76
2022/08/16 02:19:52;;;;;;;;;;;16.50;99.90;;;;;;4984423;28;20063;-76
2022/08/16 02:22:20;;;;;;;;;;;16.50;99.90;;;;;;4984289;28;20002;-75
2022/08/16 02:24:45;;;;;;;;;;;16.40;99.90;;;;;;4984087;28;20549;-76
2022/08/16 02:27:11;;;;;;;;;;;16.40;99.90;;;;;;4984350;28;19936;-76
2022/08/16 02:29:38;;;;;;;;;;;16.30;99.90;;;;;;4973027;28;20755;-75
2022/08/16 02:32:03;;;;;;;;;;;16.40;99.90;;;;;;4984200;28;19930;-75
2022/08/16 02:34:29;;;;;;;;;;;16.30;99.90;;;;;;4984427;28;19921;-75
2022/08/16 02:36:54;;;;;;;;;;;16.30;99.90;;;;;;4984245;28;19917;-76
2022/08/16 02:39:20;;;;;;;;;;;16.20;99.90;;;;;;4984654;28;19945;-76
2022/08/16 02:41:46;;;;;;;;;;;16.20;99.90;;;;;;4984364;28;19953;-76
2022/08/16 02:44:12;;;;;;;;;;;16.30;99.90;;;;;;4984184;28;19910;-75
2022/08/16 02:46:38;;;;;;;;;;;16.20;99.90;;;;;;4981929;28;19987;-76
2022/08/16 02:49:05;;;;;;;;;;;16.20;99.90;;;;;;4984209;28;20293;-76
2022/08/16 02:51:31;;;;;;;;;;;16.20;99.90;;;;;;4984008;28;19926;-78
2022/08/16 02:53:57;;;;;;;;;;;16.20;99.90;;;;;;4984653;28;19932;-79
2022/08/16 02:56:22;;;;;;;;;;;16.20;99.90;;;;;;4966713;28;19914;-78
2022/08/16 02:58:49;;;;;;;;;;;16.20;99.90;;;;;;4984304;28;19913;-80
2022/08/16 03:01:16;;;;;;;;;;;16.10;99.90;;;;;;4982424;28;19913;-80
2022/08/16 03:03:42;;;;;;;;;;;16.10;99.90;;;;;;4984090;28;20417;-81
2022/08/16 03:06:08;;;;;;;;;;;16.10;99.90;;;;;;4956000;28;19972;-79
2022/08/16 03:08:34;;;;;;;;;;;16.00;99.90;;;;;;4964429;28;19956;-79
2022/08/16 03:10:59;;;;;;;;;;;16.00;99.90;;;;;;4982886;28;19918;-79
2022/08/16 03:13:26;;;;;;;;;;;16.00;99.90;;;;;;4976698;28;19922;-79
2022/08/16 03:15:52;;;;;;;;;;;16.00;99.90;;;;;;4983987;28;19920;-79
2022/08/16 03:18:17;;;;;;;;;;;16.00;99.90;;;;;;4984436;28;20011;-80
2022/08/16 03:20:43;;;;;;;;;;;16.00;99.90;;;;;;4966534;28;19913;-78
2022/08/16 03:23:09;;;;;;;;;;;16.00;99.90;;;;;;4982783;28;19941;-78
2022/08/16 03:25:35;;;;;;;;;;;16.00;99.90;;;;;;4983740;28;19953;-78
2022/08/16 03:28:01;;;;;;;;;;;16.00;99.90;;;;;;4978390;28;20777;-78
2022/08/16 03:30:28;;;;;;;;;;;15.90;99.90;;;;;;4979930;28;20381;-78
2022/08/16 03:32:54;;;;;;;;;;;15.90;99.90;;;;;;4970515;28;19910;-77
2022/08/16 03:35:22;;;;;;;;;;;15.90;99.90;;;;;;4983714;28;19925;-76
2022/08/16 03:37:48;;;;;;;;;;;15.90;99.90;;;;;;4964804;28;19920;-77
2022/08/16 03:40:14;;;;;;;;;;;15.90;99.90;;;;;;4982448;28;20012;-77
2022/08/16 03:42:39;;;;;;;;;;;15.90;99.90;;;;;;4983796;28;19921;-78
2022/08/16 03:45:06;;;;;;;;;;;15.90;99.90;;;;;;4978697;28;19920;-78
2022/08/16 03:47:32;;;;;;;;;;;15.90;99.90;;;;;;4981763;28;19913;-77
2022/08/16 03:49:57;;;;;;;;;;;15.80;99.90;;;;;;4983809;28;19914;-77
2022/08/16 03:52:23;;;;;;;;;;;15.90;99.90;;;;;;4983588;28;20064;-77
2022/08/16 03:54:49;;;;;;;;;;;15.80;99.90;;;;;;4982407;28;19921;-79
2022/08/16 03:57:14;;;;;;;;;;;15.80;99.90;;;;;;4966204;28;19924;-79
2022/08/16 03:59:40;;;;;;;;;;;15.80;99.90;;;;;;4979495;28;19913;-79
2022/08/16 04:02:05;;;;;;;;;;;15.80;99.90;;;;;;4981968;28;19910;-79
2022/08/16 04:04:34;;;;;;;;;;;15.80;99.90;;;;;;4978995;28;19914;-79
2022/08/16 04:07:02;;;;;;;;;;;15.70;99.90;;;;;;4979172;28;20008;-79
2022/08/16 04:09:28;;;;;;;;;;;15.80;99.90;;;;;;4982071;28;19921;-79
2022/08/16 04:11:54;;;;;;;;;;;15.70;99.90;;;;;;4977058;28;20183;-80
2022/08/16 04:14:19;;;;;;;;;;;15.70;99.90;;;;;;4982176;28;20024;-79
2022/08/16 04:16:45;;;;;;;;;;;15.60;99.90;;;;;;4982908;28;20716;-79
2022/08/16 04:19:11;;;;;;;;;;;15.50;99.90;;;;;;4986962;28;19941;-79
2022/08/16 04:21:36;;;;;;;;;;;15.50;99.90;;;;;;4987475;28;19920;-78
2022/08/16 04:24:02;;;;;;;;;;;15.50;99.90;;;;;;4986347;28;19913;-79
2022/08/16 04:26:28;;;;;;;;;;;15.50;99.90;;;;;;4987211;28;20483;-80
2022/08/16 04:28:53;;;;;;;;;;;15.40;99.90;;;;;;4976357;28;20302;-79
2022/08/16 04:31:19;;;;;;;;;;;15.30;99.90;;;;;;4987271;28;20764;-79
2022/08/16 04:33:45;;;;;;;;;;;15.40;99.90;;;;;;4983288;28;19925;-80
2022/08/16 04:36:10;;;;;;;;;;;15.40;99.90;;;;;;4972972;28;19922;-79
2022/08/16 04:38:36;;;;;;;;;;;15.50;99.90;;;;;;4986243;28;19921;-79
2022/08/16 04:41:02;;;;;;;;;;;15.50;99.90;;;;;;4985007;28;19914;-81
2022/08/16 04:43:27;;;;;;;;;;;15.40;99.90;;;;;;4986308;28;19909;-82
2022/08/16 04:45:54;;;;;;;;;;;15.40;99.90;;;;;;4979528;28;19910;-80
2022/08/16 04:48:19;;;;;;;;;;;15.40;99.90;;;;;;4968951;28;20020;-80
2022/08/16 04:50:46;;;;;;;;;;;15.40;99.90;;;;;;4985330;28;20004;-81
2022/08/16 04:53:12;;;;;;;;;;;15.40;99.90;;;;;;4986431;28;20012;-79
2022/08/16 04:55:37;;;;;;;;;;;15.40;99.90;;;;;;4986776;28;19996;-80
2022/08/16 04:58:04;;;;;;;;;;;15.30;99.90;;;;;;4978169;28;20334;-81
2022/08/16 05:00:33;;;;;;;;;;;15.40;99.90;;;;;;4982507;28;20686;-79
2022/08/16 05:03:04;;;;;;;;;;;15.50;99.90;;;;;;4986178;28;19912;-80
2022/08/16 05:05:30;;;;;;;;;;;15.50;99.90;;;;;;4985078;28;20301;-79
2022/08/16 05:07:56;;;;;;;;;;;15.50;99.90;;;;;;4985088;28;19917;-79
2022/08/16 05:10:21;;;;;;;;;;;15.50;99.90;;;;;;4985013;28;20463;-78
2022/08/16 05:12:47;;;;;;;;;;;15.80;99.90;;;;;;4986202;28;19917;-77
2022/08/16 05:15:13;;;;;;;;;;;15.90;99.90;;;;;;4967255;28;20667;-78
2022/08/16 05:17:38;;;;;;;;;;;15.90;99.90;;;;;;4968672;28;20040;-78
2022/08/16 05:20:05;;;;;;;;;;;16.00;99.90;;;;;;4975564;28;19917;-79
2022/08/16 05:22:31;;;;;;;;;;;16.20;99.90;;;;;;4984918;28;20016;-78
2022/08/16 05:24:57;;;;;;;;;;;16.50;99.90;;;;;;4985931;28;20664;-78
2022/08/16 05:27:22;;;;;;;;;;;17.10;99.90;;;;;;4982772;28;19921;-78
2022/08/16 05:29:48;;;;;;;;;;;17.40;99.90;;;;;;4979386;28;19914;-78
2022/08/16 05:32:13;;;;;;;;;;;17.60;99.90;;;;;;4976838;28;19956;-78
2022/08/16 05:34:39;;;;;;;;;;;17.80;99.90;;;;;;4980451;28;19940;-78
2022/08/16 05:37:04;;;;;;;;;;;18.00;99.90;;;;;;4986037;28;20292;-78
2022/08/16 05:39:30;;;;;;;;;;;18.30;99.90;;;;;;4981439;28;19956;-79
2022/08/16 05:41:55;;;;;;;;;;;18.60;99.90;;;;;;4976738;28;20669;-79
2022/08/16 05:44:22;;;;;;;;;;;19.00;99.90;;;;;;4985215;28;19920;-79
2022/08/16 05:46:48;;;;;;;;;;;19.40;99.90;;;;;;4965127;28;19984;-86
2022/08/16 05:49:15;;;;;;;;;;;19.60;99.90;;;;;;4976794;28;19937;-87
2022/08/16 05:51:42;;;;;;;;;;;19.00;99.90;;;;;;4973401;28;19925;-87
2022/08/16 05:54:08;;;;;;;;;;;18.70;99.90;;;;;;4979007;28;19918;-86
2022/08/16 05:56:34;;;;;;;;;;;18.80;99.90;;;;;;4983825;28;20004;-88
2022/08/16 05:58:59;;;;;;;;;;;18.80;99.90;;;;;;4989275;28;20004;-89
2022/08/16 06:01:25;;;;;;;;;;;19.10;99.90;;;;;;4982961;28;19993;-89
2022/08/16 06:03:50;;;;;;;;;;;19.30;99.90;;;;;;4983604;28;20008;-90
2022/08/16 06:06:16;;;;;;;;;;;19.50;99.90;;;;;;4993644;28;19913;-90
2022/08/16 06:08:41;;;;;;;;;;;19.60;99.90;;;;;;4983851;28;19960;-88
2022/08/16 06:11:07;;;;;;;;;;;20.10;99.90;;;;;;4977747;28;19909;-87
2022/08/16 06:13:34;;;;;;;;;;;19.80;99.90;;;;;;4978337;28;19925;-88
2022/08/16 06:15:59;;;;;;;;;;;20.10;99.90;;;;;;4987278;28;20381;-88
2022/08/16 06:18:25;;;;;;;;;;;20.50;99.90;;;;;;4985713;28;19925;-82
2022/08/16 06:20:50;;;;;;;;;;;20.50;99.90;;;;;;4985695;28;19910;-85
2022/08/16 06:23:16;;;;;;;;;;;21.10;99.90;;;;;;4985374;28;20015;-83
2022/08/16 06:25:41;;;;;;;;;;;21.20;99.90;;;;;;4983764;28;19925;-87
2022/08/16 06:28:09;;;;;;;;;;;21.10;99.90;;;;;;4951508;28;20004;-90
2022/08/16 06:30:34;;;;;;;;;;;21.30;99.90;;;;;;4983035;28;20040;-85
2022/08/16 06:33:00;;;;;;;;;;;21.50;99.90;;;;;;4985930;28;19929;-85
2022/08/16 06:35:26;;;;;;;;;;;21.70;99.90;;;;;;4985275;28;20440;-91
2022/08/16 06:37:51;;;;;;;;;;;22.30;99.90;;;;;;4983499;28;19916;-87
2022/08/16 06:40:17;;;;;;;;;;;22.60;99.90;;;;;;4967079;28;19910;-77
2022/08/16 06:42:42;;;;;;;;;;;23.90;99.90;;;;;;4984597;28;19913;-80
2022/08/16 06:45:08;;;;;;;;;;;24.10;98.30;;;;;;4983100;28;19914;-80
2022/08/16 06:47:34;;;;;;;;;;;24.30;97.10;;;;;;4984748;28;19910;-81
2022/08/16 06:49:59;;;;;;;;;;;23.80;96.60;;;;;;4981350;28;20646;-79
2022/08/16 06:52:25;;;;;;;;;;;23.80;97.00;;;;;;4971206;28;21796;-76
2022/08/16 06:54:50;;;;;;;;;;;22.30;98.50;;;;;;4976956;28;19917;-77
2022/08/16 06:57:16;;;;;;;;;;;21.20;99.90;;;;;;4984774;28;20401;-76
2022/08/16 06:59:42;;;;;;;;;;;20.80;99.90;;;;;;4967240;28;20020;-75
2022/08/16 07:02:08;;;;;;;;;;;20.70;99.90;;;;;;4983050;28;19945;-76
2022/08/16 07:04:34;;;;;;;;;;;20.40;99.90;;;;;;4973487;28;19956;-75
2022/08/16 07:07:00;;;;;;;;;;;20.20;99.90;;;;;;4978719;28;19964;-76
2022/08/16 07:09:25;;;;;;;;;;;20.30;99.90;;;;;;4978668;28;20016;-79
2022/08/16 07:11:51;;;;;;;;;;;20.60;99.90;;;;;;4982941;28;20763;-77
2022/08/16 07:14:16;;;;;;;;;;;20.80;99.90;;;;;;4983427;28;19937;-78
2022/08/16 07:16:42;;;;;;;;;;;22.00;99.90;;;;;;4978053;28;19917;-78
2022/08/16 07:19:08;;;;;;;;;;;21.20;99.90;;;;;;4976960;28;19921;-77
2022/08/16 07:21:35;;;;;;;;;;;21.40;99.90;;;;;;4973941;28;19921;-78
2022/08/16 07:24:01;;;;;;;;;;;23.90;98.30;;;;;;4978102;28;19914;-78
2022/08/16 07:26:28;;;;;;;;;;;25.70;94.00;;;;;;4973667;28;20702;-78
2022/08/16 07:28:53;;;;;;;;;;;25.80;94.10;;;;;;4980397;28;20104;-78
2022/08/16 07:31:19;;;;;;;;;;;23.70;94.60;;;;;;4978888;28;20473;-78
2022/08/16 07:33:45;;;;;;;;;;;23.90;94.40;;;;;;4980979;28;19973;-78
2022/08/16 07:36:11;;;;;;;;;;;23.20;95.00;;;;;;4974790;28;19957;-79
2022/08/16 07:38:37;;;;;;;;;;;22.60;96.40;;;;;;4977520;28;20292;-79
2022/08/16 07:41:03;;;;;;;;;;;23.00;96.20;;;;;;4982312;28;19920;-79
2022/08/16 07:43:28;;;;;;;;;;;22.70;96.60;;;;;;4979489;28;20348;-79
2022/08/16 07:45:54;;;;;;;;;;;22.50;96.80;;;;;;4979741;28;20006;-78
2022/08/16 07:48:20;;;;;;;;;;;22.10;97.30;;;;;;4976441;28;19914;-80
2022/08/16 07:50:45;;;;;;;;;;;22.10;98.00;;;;;;4977330;28;19924;-87
2022/08/16 07:53:12;;;;;;;;;;;22.30;97.90;;;;;;4984755;28;19917;-83
2022/08/16 07:55:37;;;;;;;;;;;22.30;98.10;;;;;;4985931;28;19955;-84
2022/08/16 07:58:03;;;;;;;;;;;22.70;97.70;;;;;;4980161;28;20211;-83
2022/08/16 08:00:30;;;;;;;;;;;22.40;98.20;;;;;;4982536;28;19913;-83
2022/08/16 08:02:55;;;;;;;;;;;22.50;97.50;;;;;;4982203;28;19921;-83
2022/08/16 08:05:22;;;;;;;;;;;22.70;96.70;;;;;;4985264;28;19913;-83
2022/08/16 08:07:48;;;;;;;;;;;23.30;96.80;;;;;;4958129;28;20388;-83
2022/08/16 08:10:14;;;;;;;;;;;23.40;96.20;;;;;;4977321;28;19910;-83
2022/08/16 08:12:42;;;;;;;;;;;23.00;96.30;;;;;;4985729;28;20000;-83
2022/08/16 08:15:08;;;;;;;;;;;22.60;96.70;;;;;;4981634;28;19921;-83
2022/08/16 08:17:37;;;;;;;;;;;22.90;97.20;;;;;;4983444;28;19924;-84
2022/08/16 08:20:03;;;;;;;;;;;25.40;93.40;;;;;;4983090;28;19913;-84
2022/08/16 08:22:29;;;;;;;;;;;25.50;92.40;;;;;;4983160;28;20053;-84
2022/08/16 08:24:54;;;;;;;;;;;26.80;90.60;;;;;;4984389;28;19913;-84
2022/08/16 08:27:20;;;;;;;;;;;25.80;91.00;;;;;;4967127;28;19914;-84
2022/08/16 08:29:45;;;;;;;;;;;25.70;91.50;;;;;;4978702;28;19922;-84
2022/08/16 08:32:11;;;;;;;;;;;25.40;90.70;;;;;;4985663;28;19913;-83
2022/08/16 08:34:37;;;;;;;;;;;24.80;91.70;;;;;;4979512;28;19922;-86
2022/08/16 08:37:02;;;;;;;;;;;24.80;92.60;;;;;;4959771;28;20452;-86
2022/08/16 08:39:28;;;;;;;;;;;25.40;91.80;;;;;;4983919;28;19986;-86
2022/08/16 08:41:53;;;;;;;;;;;25.80;90.80;;;;;;4985885;28;19914;-86
2022/08/16 08:44:19;;;;;;;;;;;28.00;87.20;;;;;;4982298;28;19913;-85
2022/08/16 08:46:45;;;;;;;;;;;29.70;83.20;;;;;;4985050;28;19918;-86
2022/08/16 08:49:11;;;;;;;;;;;28.90;80.70;;;;;;4979929;28;20016;-85
2022/08/16 08:51:37;;;;;;;;;;;27.10;83.00;;;;;;4984589;28;19921;-78
2022/08/16 08:54:07;;;;;;;;;;;26.80;85.00;;;;;;4963233;28;20408;-78
2022/08/16 08:56:36;;;;;;;;;;;27.00;85.50;;;;;;4982144;28;19921;-78
2022/08/16 08:59:02;;;;;;;;;;;27.00;82.90;;;;;;4985416;28;19920;-78
2022/08/16 09:01:34;;;;;;;;;;;26.80;86.50;;;;;;4984669;28;19914;-78
2022/08/16 09:04:02;;;;;;;;;;;27.00;82.80;;;;;;4966367;28;20370;-79
2022/08/16 09:06:27;;;;;;;;;;;26.70;85.10;;;;;;4960227;28;19917;-79
2022/08/16 09:08:53;;;;;;;;;;;26.20;83.20;;;;;;4984433;28;19914;-79
2022/08/16 09:11:18;;;;;;;;;;;26.20;84.70;;;;;;4967700;28;19913;-79
2022/08/16 09:13:45;;;;;;;;;;;27.70;81.10;;;;;;4983848;28;19928;-79
2022/08/16 09:16:10;;;;;;;;;;;26.60;83.40;;;;;;4979113;28;20012;-78
2022/08/16 09:18:36;;;;;;;;;;;26.50;83.70;;;;;;4978891;28;19914;-79
2022/08/16 09:21:01;;;;;;;;;;;26.50;84.50;;;;;;4975246;28;20009;-77
2022/08/16 09:23:30;;;;;;;;;;;25.70;83.30;;;;;;4983973;28;19920;-79
2022/08/16 09:25:56;;;;;;;;;;;25.50;86.10;;;;;;4980409;28;20730;-78
2022/08/16 09:28:21;;;;;;;;;;;25.90;84.10;;;;;;4982862;28;20001;-80
2022/08/16 09:30:48;;;;;;;;;;;26.90;82.30;;;;;;4981950;28;20396;-80
2022/08/16 09:33:17;;;;;;;;;;;27.70;83.30;;;;;;4982448;28;19909;-81
2022/08/16 09:35:43;;;;;;;;;;;27.20;81.60;;;;;;4977742;28;19980;-77
2022/08/16 09:38:11;;;;;;;;;;;26.50;81.20;;;;;;4982626;28;19909;-79
2022/08/16 09:40:36;;;;;;;;;;;26.20;82.30;;;;;;4983249;28;19920;-78
2022/08/16 09:43:03;;;;;;;;;;;26.00;82.70;;;;;;4967090;28;20008;-78
2022/08/16 09:45:29;;;;;;;;;;;25.80;84.00;;;;;;4967120;28;20405;-79
2022/08/16 09:47:55;;;;;;;;;;;25.60;85.00;;;;;;4982004;28;19917;-78
2022/08/16 09:50:21;;;;;;;;;;;25.40;85.50;;;;;;4960818;28;19914;-78
2022/08/16 09:52:47;;;;;;;;;;;25.20;87.80;;;;;;4985538;28;19909;-79
2022/08/16 09:55:13;;;;;;;;;;;25.10;90.00;;;;;;4984845;28;19928;-79
2022/08/16 09:57:40;;;;;;;;;;;25.00;91.10;;;;;;4980305;28;19948;-79
2022/08/16 10:00:07;;;;;;;;;;;24.90;92.30;;;;;;4984072;28;19918;-78
2022/08/16 10:02:33;;;;;;;;;;;24.90;93.30;;;;;;4985163;28;19913;-79
2022/08/16 10:04:59;;;;;;;;;;;24.90;93.80;;;;;;4966944;28;19921;-79
2022/08/16 10:07:25;;;;;;;;;;;25.00;93.60;;;;;;4982728;28;19920;-79
2022/08/16 10:09:51;;;;;;;;;;;25.00;93.40;;;;;;4979302;28;19917;-78
2022/08/16 10:15:00;;;;;;;;;;;25.10;93.20;;;;;;4983468;28;19933;-78
2022/08/16 10:17:26;;;;;;;;;;;25.00;92.80;;;;;;4981832;28;19909;-77
2022/08/16 10:19:54;;;;;;;;;;;24.90;93.20;;;;;;4983047;28;20380;-77
2022/08/16 10:22:20;;;;;;;;;;;24.80;92.80;;;;;;4984365;28;19993;-78
2022/08/16 10:24:45;;;;;;;;;;;24.60;92.60;;;;;;4983559;28;20507;-77
2022/08/16 10:27:11;;;;;;;;;;;24.40;92.90;;;;;;4985039;28;19920;-78
2022/08/16 10:29:37;;;;;;;;;;;24.50;93.10;;;;;;4984749;28;19913;-78
2022/08/16 10:32:03;;;;;;;;;;;24.50;93.50;;;;;;4980902;28;19963;-78
2022/08/16 10:34:29;;;;;;;;;;;24.50;91.90;;;;;;4984643;28;20057;-78
2022/08/16 10:36:54;;;;;;;;;;;24.50;93.40;;;;;;4952837;28;20039;-79
2022/08/16 10:39:20;;;;;;;;;;;24.60;93.80;;;;;;4980208;28;19924;-78
2022/08/16 10:41:45;;;;;;;;;;;24.80;93.90;;;;;;4979956;28;19953;-78
2022/08/16 10:44:13;;;;;;;;;;;25.10;92.80;;;;;;4979733;28;20696;-79
2022/08/16 10:46:39;;;;;;;;;;;25.80;91.60;;;;;;4960293;28;19924;-78
2022/08/16 10:49:05;;;;;;;;;;;26.00;88.30;;;;;;4984128;28;19917;-79
2022/08/16 10:51:31;;;;;;;;;;;26.10;87.80;;;;;;4982543;28;19922;-78
2022/08/16 10:53:57;;;;;;;;;;;26.20;86.20;;;;;;4978793;28;19926;-78
2022/08/16 10:56:24;;;;;;;;;;;26.50;84.40;;;;;;4978197;28;20397;-78
2022/08/16 10:58:50;;;;;;;;;;;26.80;86.00;;;;;;4957382;28;20344;-78
2022/08/16 11:01:16;;;;;;;;;;;26.80;84.50;;;;;;4980558;28;20385;-79
2022/08/16 11:03:42;;;;;;;;;;;26.90;84.30;;;;;;4982721;28;20436;-79
2022/08/16 11:06:08;;;;;;;;;;;26.50;83.40;;;;;;4979281;28;20013;-78
2022/08/16 11:08:35;;;;;;;;;;;26.30;84.60;;;;;;4977299;28;19914;-78
2022/08/16 11:11:01;;;;;;;;;;;26.10;83.60;;;;;;4966467;28;20024;-78
2022/08/16 11:13:27;;;;;;;;;;;26.00;84.40;;;;;;4981263;28;22307;-78
2022/08/16 11:15:54;;;;;;;;;;;25.90;85.00;;;;;;4962432;28;19914;-78
2022/08/16 11:18:21;;;;;;;;;;;25.80;86.10;;;;;;4981484;28;19948;-78
2022/08/16 11:20:47;;;;;;;;;;;25.80;87.10;;;;;;4983197;28;20403;-78
2022/08/16 11:23:13;;;;;;;;;;;25.90;85.80;;;;;;4979592;28;19914;-79
2022/08/16 11:25:39;;;;;;;;;;;26.20;82.70;;;;;;4983999;28;19909;-78
2022/08/16 11:28:05;;;;;;;;;;;26.20;81.70;;;;;;4983235;28;19920;-78
2022/08/16 11:30:32;;;;;;;;;;;26.30;81.50;;;;;;4983955;28;19910;-78
2022/08/16 11:32:57;;;;;;;;;;;26.50;80.80;;;;;;4983539;28;19961;-78
2022/08/16 11:35:25;;;;;;;;;;;26.70;80.70;;;;;;4984099;28;20027;-78
2022/08/16 11:37:53;;;;;;;;;;;26.80;83.80;;;;;;4965817;28;19913;-79
2022/08/16 11:40:19;;;;;;;;;;;26.70;84.10;;;;;;4959057;28;20012;-78
2022/08/16 11:42:44;;;;;;;;;;;26.60;84.80;;;;;;4934319;28;19971;-78
2022/08/16 11:45:10;;;;;;;;;;;26.50;83.70;;;;;;4980814;28;19914;-78
2022/08/16 11:47:36;;;;;;;;;;;26.50;83.20;;;;;;4979335;28;20397;-78
2022/08/16 11:50:04;;;;;;;;;;;26.50;83.90;;;;;;4981745;28;19956;-78
2022/08/16 11:52:29;;;;;;;;;;;26.40;88.30;;;;;;4988548;28;20032;-77
2022/08/16 11:54:55;;;;;;;;;;;26.20;90.60;;;;;;4983581;28;20024;-78
2022/08/16 11:57:21;;;;;;;;;;;26.10;91.80;;;;;;4979175;28;19917;-77
2022/08/16 11:59:46;;;;;;;;;;;26.10;91.30;;;;;;4980551;28;19918;-78
2022/08/16 12:02:12;;;;;;;;;;;26.30;90.70;;;;;;4975903;28;19909;-78
2022/08/16 12:04:37;;;;;;;;;;;26.40;90.40;;;;;;4983207;28;20271;-78
2022/08/16 12:07:04;;;;;;;;;;;26.40;88.10;;;;;;4979739;28;20560;-79
2022/08/16 12:09:30;;;;;;;;;;;26.50;85.20;;;;;;4979846;28;20403;-79
2022/08/16 12:11:57;;;;;;;;;;;26.30;83.20;;;;;;4982297;28;19913;-79
2022/08/16 12:14:22;;;;;;;;;;;26.30;81.90;;;;;;4983997;28;20495;-80
2022/08/16 12:16:48;;;;;;;;;;;26.40;79.50;;;;;;4982509;28;19914;-78
2022/08/16 12:19:14;;;;;;;;;;;26.50;80.40;;;;;;4983622;28;19968;-78
2022/08/16 12:21:40;;;;;;;;;;;26.60;80.50;;;;;;4983665;28;20498;-78
2022/08/16 12:24:06;;;;;;;;;;;26.50;80.80;;;;;;4982373;28;20733;-79
2022/08/16 12:26:32;;;;;;;;;;;26.40;83.10;;;;;;4980281;28;19920;-79
2022/08/16 12:29:00;;;;;;;;;;;26.30;83.70;;;;;;4980778;28;19914;-79
2022/08/16 12:31:25;;;;;;;;;;;26.10;84.50;;;;;;4978474;28;19961;-79
2022/08/16 12:33:51;;;;;;;;;;;26.10;85.60;;;;;;4982766;28;19984;-79
2022/08/16 12:36:17;;;;;;;;;;;26.20;85.80;;;;;;4982636;28;19914;-78
2022/08/16 12:38:43;;;;;;;;;;;26.30;85.20;;;;;;4980887;28;19924;-78
2022/08/16 12:41:09;;;;;;;;;;;26.20;85.20;;;;;;4983090;28;19914;-78
2022/08/16 12:43:35;;;;;;;;;;;26.20;85.30;;;;;;4985519;28;19914;-79
2022/08/16 12:46:00;;;;;;;;;;;26.50;84.70;;;;;;4980290;28;19992;-79
2022/08/16 12:51:14;;;;;;;;;;;27.20;83.30;;;;;;4981630;28;19972;-79
2022/08/16 12:53:40;;;;;;;;;;;27.40;81.20;;;;;;4984027;28;20015;-79
2022/08/16 12:56:06;;;;;;;;;;;27.50;80.20;;;;;;4981313;28;20349;-78
2022/08/16 12:58:32;;;;;;;;;;;27.40;79.80;;;;;;4978210;28;20434;-79
2022/08/16 13:00:58;;;;;;;;;;;27.30;80.10;;;;;;4986395;28;20008;-79
2022/08/16 13:03:24;;;;;;;;;;;27.30;81.40;;;;;;4982446;28;19910;-78
2022/08/16 13:05:50;;;;;;;;;;;27.20;79.70;;;;;;4967028;28;19909;-79
2022/08/16 13:08:17;;;;;;;;;;;27.30;80.40;;;;;;4984478;28;20756;-79
2022/08/16 13:10:46;;;;;;;;;;;27.50;79.60;;;;;;4985015;28;20376;-79
2022/08/16 13:13:13;;;;;;;;;;;27.70;80.00;;;;;;4986294;28;19914;-79
2022/08/16 13:15:39;;;;;;;;;;;27.90;77.10;;;;;;4965596;28;19918;-79
2022/08/16 13:18:04;;;;;;;;;;;28.10;76.10;;;;;;4985892;28;20577;-80
2022/08/16 13:20:30;;;;;;;;;;;28.00;74.80;;;;;;4983832;28;19910;-81
2022/08/16 13:23:01;;;;;;;;;;;28.10;76.00;;;;;;4985741;28;19918;-79
2022/08/16 13:25:27;;;;;;;;;;;28.10;73.80;;;;;;4975782;28;20377;-79
2022/08/16 13:27:53;;;;;;;;;;;28.00;75.50;;;;;;4975956;28;19921;-80
2022/08/16 13:30:19;;;;;;;;;;;28.00;75.30;;;;;;4981336;28;19910;-79
2022/08/16 13:32:45;;;;;;;;;;;28.10;75.90;;;;;;4982638;28;19924;-79
2022/08/16 13:35:10;;;;;;;;;;;28.30;76.50;;;;;;4976698;28;19922;-79
2022/08/16 13:37:36;;;;;;;;;;;28.20;74.50;;;;;;4982157;28;19913;-78
2022/08/16 13:40:03;;;;;;;;;;;28.10;73.20;;;;;;4985361;28;19910;-79
2022/08/16 13:42:28;;;;;;;;;;;28.00;73.80;;;;;;4979610;28;19914;-79
2022/08/16 13:44:54;;;;;;;;;;;28.10;73.50;;;;;;4984486;28;19932;-78
2022/08/16 13:47:19;;;;;;;;;;;28.20;74.00;;;;;;4977809;28;19914;-79
2022/08/16 13:49:45;;;;;;;;;;;28.40;74.60;;;;;;4969834;28;20464;-78
2022/08/16 13:52:11;;;;;;;;;;;28.70;74.60;;;;;;4982933;28;20015;-80
2022/08/16 13:54:37;;;;;;;;;;;28.70;74.80;;;;;;4984787;28;19933;-79
2022/08/16 13:57:03;;;;;;;;;;;28.40;70.50;;;;;;4966277;28;19914;-78
2022/08/16 13:59:28;;;;;;;;;;;28.20;72.40;;;;;;4985119;28;20316;-80
2022/08/16 14:01:56;;;;;;;;;;;28.10;72.80;;;;;;4967421;28;19921;-80
2022/08/16 14:04:29;;;;;;;;;;;28.10;71.50;;;;;;4983814;28;19910;-79
2022/08/16 14:06:56;;;;;;;;;;;28.30;71.50;;;;;;4978973;28;19965;-79
2022/08/16 14:09:21;;;;;;;;;;;28.50;73.90;;;;;;4985267;28;19916;-79
2022/08/16 14:11:47;;;;;;;;;;;28.30;70.70;;;;;;4984909;28;20243;-79
2022/08/16 14:14:13;;;;;;;;;;;28.20;70.80;;;;;;4985089;28;20397;-79